Terminal Aerodrome Forecast
Issued by NWS

Home | Current Version | Previous Version | Text Only | Print | Product List | Glossary On
Versions: 1 2 3 4 5 6 7 8 9 10 11 12 13 14 15 16 17 18 19 20 21 22 23 24 25 26 27 28 29 30
000
FTUS41 KBOX 230521
TAFHYA
TAF
KHYA 230521Z 2306/2406 22005KT 1/4SM FG OVC002
     FM231400 21008KT 4SM BR SCT002
     FM231600 22010KT P6SM SCT150
     FM240200 22010KT 4SM BR BKN010
     FM240500 23010KT 1/4SM FG OVC002=

USA.gov is the U.S. government's official web portal to all federal, state and local government web resources and services.